createdAt,value
2018-09-19T00:01:05.312Z,23.96
2018-09-19T00:03:31.290Z,23.96
2018-09-19T00:05:57.284Z,23.96
2018-09-19T00:08:23.274Z,23.96
2018-09-19T00:10:49.249Z,23.96
2018-09-19T00:13:15.235Z,23.96
2018-09-19T00:15:41.214Z,23.96
2018-09-19T00:18:07.189Z,23.96
2018-09-19T00:20:33.168Z,23.96
2018-09-19T00:22:59.142Z,23.96
2018-09-19T00:25:25.123Z,23.96
2018-09-19T00:27:51.110Z,23.95
2018-09-19T00:30:17.092Z,23.95
2018-09-19T00:32:43.076Z,23.95
2018-09-19T00:35:09.116Z,23.95
2018-09-19T00:37:35.039Z,23.94
2018-09-19T00:40:01.024Z,23.95
2018-09-19T00:42:27.010Z,23.95
2018-09-19T00:44:52.983Z,23.95
2018-09-19T00:47:18.960Z,23.95
2018-09-19T00:49:44.943Z,23.95
2018-09-19T00:52:10.937Z,23.95
2018-09-19T00:54:36.937Z,23.95
2018-09-19T00:57:02.974Z,23.95
2018-09-19T00:59:28.994Z,23.95
2018-09-19T01:01:54.972Z,23.94
2018-09-19T01:04:20.947Z,23.95
2018-09-19T01:06:46.927Z,23.95
2018-09-19T01:09:12.910Z,23.95
2018-09-19T01:11:38.891Z,23.94
2018-09-19T01:14:04.950Z,23.94
2018-09-19T01:16:30.939Z,23.94
2018-09-19T01:18:56.915Z,23.94
2018-09-19T01:21:22.904Z,23.94
2018-09-19T01:23:48.889Z,23.94
2018-09-19T01:26:14.861Z,23.94
2018-09-19T01:28:40.845Z,23.94
2018-09-19T01:31:06.823Z,23.94
2018-09-19T01:33:32.810Z,23.93
2018-09-19T01:35:58.825Z,23.93
2018-09-19T01:38:24.857Z,23.94
2018-09-19T01:40:50.864Z,23.94
2018-09-19T01:43:16.832Z,23.94
2018-09-19T01:45:42.808Z,23.94
2018-09-19T01:48:08.790Z,23.93
2018-09-19T01:50:34.777Z,23.94
2018-09-19T01:53:00.767Z,23.93
2018-09-19T01:55:26.753Z,23.93
2018-09-19T01:57:52.734Z,23.93
2018-09-19T02:00:18.717Z,23.93
2018-09-19T02:02:44.693Z,23.93
2018-09-19T02:05:10.677Z,23.93
2018-09-19T02:07:36.653Z,23.93
2018-09-19T02:10:02.636Z,23.93
2018-09-19T02:12:28.653Z,23.93
2018-09-19T02:14:54.693Z,23.93
2018-09-19T02:17:20.641Z,23.92
2018-09-19T02:19:46.634Z,23.93
2018-09-19T02:22:12.631Z,23.93
2018-09-19T02:24:38.612Z,23.93
2018-09-19T02:27:04.592Z,23.92
2018-09-19T02:29:30.576Z,23.93
2018-09-19T02:31:56.554Z,23.93
2018-09-19T02:34:22.533Z,23.92
2018-09-19T02:36:48.527Z,23.92
2018-09-19T02:39:14.497Z,23.92
2018-09-19T02:41:40.483Z,23.92
2018-09-19T02:44:06.457Z,23.92
2018-09-19T02:46:32.491Z,23.92
2018-09-19T02:48:58.475Z,23.91
2018-09-19T02:51:24.460Z,23.92
2018-09-19T02:53:50.443Z,23.92
2018-09-19T02:56:16.417Z,23.92
2018-09-19T02:58:42.397Z,23.92
2018-09-19T03:01:08.395Z,23.92
2018-09-19T03:03:34.391Z,23.91
2018-09-19T03:06:00.367Z,23.91
2018-09-19T03:08:26.362Z,23.91
2018-09-19T03:10:52.347Z,23.91
2018-09-19T03:13:18.334Z,23.92
2018-09-19T03:15:44.368Z,23.91
2018-09-19T03:18:10.340Z,23.91
2018-09-19T03:20:36.325Z,23.91
2018-09-19T03:23:02.315Z,23.90
2018-09-19T03:25:28.296Z,23.91
2018-09-19T03:27:54.274Z,23.91
2018-09-19T03:30:20.310Z,23.91
2018-09-19T03:32:46.277Z,23.90
2018-09-19T03:35:12.274Z,23.90
2018-09-19T03:37:38.239Z,23.90
2018-09-19T03:40:04.228Z,23.90
2018-09-19T03:42:30.212Z,23.91
2018-09-19T03:44:56.434Z,23.90
2018-09-19T03:47:22.407Z,23.90
2018-09-19T03:49:48.436Z,23.90
2018-09-19T03:52:14.419Z,23.90
2018-09-19T03:54:40.398Z,23.90
2018-09-19T03:57:06.419Z,23.90
2018-09-19T03:59:32.430Z,23.90
2018-09-19T04:01:58.379Z,23.89
2018-09-19T04:04:24.396Z,23.90
2018-09-19T04:06:50.378Z,23.90
2018-09-19T04:09:16.348Z,23.89
2018-09-19T04:11:42.386Z,23.90
2018-09-19T04:14:08.399Z,23.89
2018-09-19T04:16:34.410Z,23.89
2018-09-19T04:19:00.371Z,23.89
2018-09-19T04:21:26.354Z,23.89
2018-09-19T04:23:52.339Z,23.89
2018-09-19T04:26:18.324Z,23.89
2018-09-19T04:28:44.321Z,23.89
2018-09-19T04:31:10.301Z,23.90
2018-09-19T04:33:36.305Z,23.90
2018-09-19T04:36:02.345Z,23.90
2018-09-19T04:38:28.333Z,23.89
2018-09-19T04:40:54.310Z,23.89
2018-09-19T04:43:20.288Z,23.90
2018-09-19T04:45:46.289Z,23.89
2018-09-19T04:48:12.274Z,23.89
2018-09-19T04:50:38.257Z,23.89
2018-09-19T04:53:04.244Z,23.90
2018-09-19T04:55:30.265Z,23.89
2018-09-19T04:57:56.328Z,23.89
2018-09-19T05:00:22.358Z,23.89
2018-09-19T05:02:48.334Z,23.90
2018-09-19T05:05:14.324Z,23.90
2018-09-19T05:07:40.320Z,23.91
2018-09-19T05:10:06.300Z,23.92
2018-09-19T05:12:32.298Z,23.94
2018-09-19T05:14:58.294Z,23.95
2018-09-19T05:17:24.275Z,23.95
2018-09-19T05:19:50.284Z,23.96
2018-09-19T05:22:16.292Z,23.97
2018-09-19T05:24:42.287Z,23.96
2018-09-19T05:27:08.267Z,23.96
2018-09-19T05:29:34.275Z,23.96
2018-09-19T05:32:00.266Z,23.96
2018-09-19T05:34:26.303Z,23.96
2018-09-19T05:36:52.314Z,23.96
2018-09-19T05:39:18.304Z,23.96
2018-09-19T05:41:44.269Z,23.95
2018-09-19T05:44:10.283Z,23.95
2018-09-19T05:46:36.317Z,23.95
2018-09-19T05:49:02.247Z,23.94
2018-09-19T05:51:28.239Z,23.94
2018-09-19T05:53:54.209Z,23.94
2018-09-19T05:56:20.203Z,23.94
2018-09-19T05:58:46.186Z,23.97
2018-09-19T06:01:12.198Z,23.98
2018-09-19T06:03:38.235Z,24.00
2018-09-19T06:06:04.161Z,23.99
2018-09-19T06:08:30.228Z,23.98
2018-09-19T06:10:56.172Z,23.98
2018-09-19T06:13:22.171Z,23.98
2018-09-19T06:15:48.160Z,23.97
2018-09-19T06:18:14.160Z,23.97
2018-09-19T06:20:40.143Z,23.96
2018-09-19T06:23:06.123Z,23.95
2018-09-19T06:25:32.108Z,23.95
2018-09-19T06:27:58.099Z,23.95
2018-09-19T06:30:24.073Z,23.96
2018-09-19T06:32:50.227Z,23.95
2018-09-19T06:35:16.149Z,23.95
2018-09-19T06:37:42.190Z,23.94
2018-09-19T06:40:08.178Z,23.92
2018-09-19T06:42:34.158Z,23.92
2018-09-19T06:45:00.134Z,23.92
2018-09-19T06:47:26.206Z,23.92
2018-09-19T06:52:40.254Z,23.92
2018-09-19T06:55:07.008Z,23.92
2018-09-19T06:57:33.882Z,23.92
2018-09-19T07:00:00.627Z,23.92
2018-09-19T07:02:27.227Z,23.92
2018-09-19T07:04:53.847Z,23.91
2018-09-19T07:07:20.919Z,23.91
2018-09-19T07:09:47.425Z,23.91
2018-09-19T07:12:14.335Z,23.90
2018-09-19T07:14:40.729Z,23.90
2018-09-19T07:17:06.718Z,23.90
2018-09-19T07:19:32.731Z,23.90
2018-09-19T07:21:58.720Z,23.90
2018-09-19T07:24:24.702Z,23.90
2018-09-19T07:26:50.676Z,23.90
2018-09-19T07:29:16.664Z,23.89
2018-09-19T07:31:42.655Z,23.89
2018-09-19T07:34:08.646Z,23.88
2018-09-19T07:36:34.633Z,23.88
2018-09-19T07:39:00.615Z,23.86
2018-09-19T07:41:26.712Z,23.85
2018-09-19T07:43:52.684Z,23.85
2018-09-19T07:46:18.716Z,23.85
2018-09-19T07:48:44.693Z,23.84
2018-09-19T07:51:10.688Z,23.83
2018-09-19T07:53:36.748Z,23.83
2018-09-19T07:56:02.783Z,23.85
2018-09-19T07:58:28.765Z,23.87
2018-09-19T08:00:54.895Z,23.87
2018-09-19T08:03:20.764Z,23.94
2018-09-19T08:05:46.736Z,23.97
2018-09-19T08:08:12.712Z,24.08
2018-09-19T08:10:38.697Z,24.06
2018-09-19T08:13:04.710Z,24.11
2018-09-19T08:15:30.683Z,24.09
2018-09-19T08:17:56.687Z,24.05
2018-09-19T08:20:22.668Z,24.24
2018-09-19T08:22:48.714Z,24.28
2018-09-19T08:25:14.709Z,24.19
2018-09-19T08:27:40.624Z,24.14
2018-09-19T08:30:06.609Z,24.09
2018-09-19T08:32:32.621Z,24.07
2018-09-19T08:34:58.633Z,24.05
2018-09-19T08:37:24.624Z,24.05
2018-09-19T08:39:50.705Z,24.03
2018-09-19T08:42:16.706Z,24.02
2018-09-19T08:44:42.705Z,24.02
2018-09-19T08:47:08.716Z,24.02
2018-09-19T08:49:34.695Z,24.02
2018-09-19T08:52:00.692Z,24.02
2018-09-19T08:54:26.728Z,24.02
2018-09-19T08:56:52.680Z,24.01
2018-09-19T08:59:18.646Z,24.02
2018-09-19T09:01:44.651Z,24.01
2018-09-19T09:04:10.643Z,24.00
2018-09-19T09:06:36.644Z,24.01
2018-09-19T09:09:02.647Z,24.00
2018-09-19T09:11:28.644Z,24.00
2018-09-19T09:13:54.643Z,24.00
2018-09-19T09:16:20.658Z,23.99
2018-09-19T09:18:46.615Z,24.00
2018-09-19T09:21:12.627Z,24.00
2018-09-19T09:23:38.620Z,23.99
2018-09-19T09:26:04.649Z,23.99
2018-09-19T09:28:30.607Z,24.00
2018-09-19T09:30:56.675Z,23.99
2018-09-19T09:33:22.614Z,24.00
2018-09-19T09:35:48.624Z,24.00
2018-09-19T09:38:14.625Z,24.00
2018-09-19T09:40:40.606Z,24.01
2018-09-19T09:43:06.647Z,24.00
2018-09-19T09:45:32.638Z,24.01
2018-09-19T09:47:58.656Z,24.02
2018-09-19T09:50:24.691Z,24.01
2018-09-19T09:52:50.668Z,24.03
2018-09-19T09:55:16.676Z,24.03
2018-09-19T09:57:42.734Z,24.03
2018-09-19T10:00:08.703Z,24.04
2018-09-19T10:02:34.716Z,24.04
2018-09-19T10:05:00.690Z,24.03
2018-09-19T10:07:26.724Z,24.03
2018-09-19T10:09:52.748Z,24.03
2018-09-19T10:12:18.714Z,24.04
2018-09-19T10:14:44.706Z,24.04
2018-09-19T10:17:10.702Z,24.04
2018-09-19T10:19:36.708Z,24.05
2018-09-19T10:22:02.715Z,24.05
2018-09-19T10:24:28.711Z,24.07
2018-09-19T10:26:54.746Z,24.06
2018-09-19T10:29:20.746Z,24.06
2018-09-19T10:31:46.719Z,24.07
2018-09-19T10:34:12.723Z,24.08
2018-09-19T10:36:38.740Z,24.09
2018-09-19T10:39:04.740Z,24.10
2018-09-19T10:41:30.728Z,24.11
2018-09-19T10:43:56.716Z,24.11
2018-09-19T10:46:22.730Z,24.12
2018-09-19T10:48:48.734Z,24.13
2018-09-19T10:51:14.755Z,24.13
2018-09-19T10:53:40.751Z,24.13
2018-09-19T10:56:06.748Z,24.14
2018-09-19T10:58:32.781Z,24.15
2018-09-19T11:00:58.777Z,24.15
2018-09-19T11:03:24.757Z,24.15
2018-09-19T11:05:50.753Z,24.14
2018-09-19T11:08:16.746Z,24.15
2018-09-19T11:10:42.775Z,24.15
2018-09-19T11:13:08.779Z,24.16
2018-09-19T11:15:34.788Z,24.15
2018-09-19T11:18:00.785Z,24.16
2018-09-19T11:20:26.788Z,24.16
2018-09-19T11:22:52.774Z,24.17
2018-09-19T11:25:18.774Z,24.17
2018-09-19T11:27:44.800Z,24.18
2018-09-19T11:30:10.818Z,24.17
2018-09-19T11:32:36.784Z,24.18
2018-09-19T11:35:02.766Z,24.18
2018-09-19T11:37:28.772Z,24.18
2018-09-19T11:39:54.772Z,24.21
2018-09-19T11:42:21.222Z,24.21
2018-09-19T11:44:55.435Z,24.22
2018-09-19T11:47:21.766Z,24.21
2018-09-19T11:49:47.643Z,24.21
2018-09-19T11:52:13.668Z,24.22
2018-09-19T11:54:39.643Z,24.22
2018-09-19T11:57:05.629Z,24.23
2018-09-19T11:59:31.637Z,24.22
2018-09-19T12:01:57.702Z,24.21
2018-09-19T12:04:23.762Z,24.21
2018-09-19T12:06:49.714Z,24.20
2018-09-19T12:09:15.758Z,24.20
2018-09-19T12:11:41.754Z,24.19
2018-09-19T12:14:07.750Z,24.18
2018-09-19T12:16:33.739Z,24.19
2018-09-19T12:18:59.718Z,24.19
2018-09-19T12:21:25.697Z,24.19
2018-09-19T12:23:51.714Z,24.18
2018-09-19T12:26:17.849Z,24.18
2018-09-19T12:28:43.795Z,24.17
2018-09-19T12:31:09.776Z,24.17
2018-09-19T12:33:35.754Z,24.18
2018-09-19T12:36:01.887Z,24.18
2018-09-19T12:38:27.844Z,24.18
2018-09-19T12:40:53.835Z,24.17
2018-09-19T12:43:19.862Z,24.18
2018-09-19T12:45:45.845Z,24.18
2018-09-19T12:48:11.836Z,24.18
2018-09-19T12:50:37.833Z,24.18
2018-09-19T12:53:03.838Z,24.18
2018-09-19T12:55:29.848Z,24.18
2018-09-19T12:57:55.820Z,24.18
2018-09-19T13:00:21.856Z,24.17
2018-09-19T13:02:47.797Z,24.17
2018-09-19T13:05:13.798Z,24.17
2018-09-19T13:07:39.790Z,24.17
2018-09-19T13:10:10.928Z,24.16
2018-09-19T13:12:36.924Z,24.16
2018-09-19T13:15:02.935Z,24.15
2018-09-19T13:17:28.931Z,24.15
2018-09-19T13:19:54.965Z,24.15
2018-09-19T13:22:20.954Z,24.15
2018-09-19T13:24:47.137Z,24.15
2018-09-19T13:27:13.155Z,24.15
2018-09-19T13:29:39.148Z,24.14
2018-09-19T13:32:05.199Z,24.14
2018-09-19T13:34:31.177Z,24.14
2018-09-19T13:36:57.180Z,24.14
2018-09-19T13:39:23.185Z,24.15
2018-09-19T13:41:49.190Z,24.14
2018-09-19T13:44:15.160Z,24.15
2018-09-19T13:46:41.172Z,24.14
2018-09-19T13:49:07.187Z,24.16
2018-09-19T13:51:33.181Z,24.18
2018-09-19T13:53:59.167Z,24.19
2018-09-19T13:56:25.165Z,24.20
2018-09-19T13:58:51.204Z,24.20
2018-09-19T14:01:17.157Z,24.20
2018-09-19T14:03:43.165Z,24.19
2018-09-19T14:06:09.183Z,24.18
2018-09-19T14:08:35.161Z,24.18
2018-09-19T14:11:01.173Z,24.21
2018-09-19T14:13:27.172Z,24.21
2018-09-19T14:15:53.183Z,24.20
2018-09-19T14:18:19.187Z,24.21
2018-09-19T14:20:45.191Z,24.20
2018-09-19T14:23:11.195Z,24.20
2018-09-19T14:25:37.200Z,24.20
2018-09-19T14:28:03.174Z,24.19
2018-09-19T14:30:29.161Z,24.19
2018-09-19T14:32:55.147Z,24.19
2018-09-19T14:35:21.140Z,24.19
2018-09-19T14:37:47.229Z,24.19
2018-09-19T14:40:13.202Z,24.19
2018-09-19T14:42:39.188Z,24.19
2018-09-19T14:45:05.178Z,24.19
2018-09-19T14:47:31.170Z,24.20
2018-09-19T14:49:57.130Z,24.20
2018-09-19T14:52:23.143Z,24.20
2018-09-19T14:54:49.128Z,24.20
2018-09-19T14:57:15.128Z,24.20
2018-09-19T14:59:41.168Z,24.20
2018-09-19T15:02:07.160Z,24.20
2018-09-19T15:04:33.161Z,24.22
2018-09-19T15:06:59.148Z,24.22
2018-09-19T15:09:25.126Z,24.24
2018-09-19T15:11:51.126Z,24.24
2018-09-19T15:14:17.142Z,24.24
2018-09-19T15:16:43.275Z,24.25
2018-09-19T15:19:09.268Z,24.26
2018-09-19T15:21:35.321Z,24.29
2018-09-19T15:24:01.312Z,24.30
2018-09-19T15:26:27.388Z,24.32
2018-09-19T15:28:53.392Z,24.31
2018-09-19T15:31:19.404Z,24.27
2018-09-19T15:33:45.377Z,24.27
2018-09-19T15:36:11.456Z,24.25
2018-09-19T15:38:37.388Z,24.26
2018-09-19T15:41:03.359Z,24.25
2018-09-19T15:43:29.389Z,24.25
2018-09-19T15:45:55.384Z,24.26
2018-09-19T15:48:21.393Z,24.24
2018-09-19T15:50:47.362Z,24.23
2018-09-19T15:53:13.347Z,24.28
2018-09-19T15:55:39.384Z,24.31
2018-09-19T15:58:05.310Z,24.32
2018-09-19T16:00:31.354Z,24.30
2018-09-19T16:02:57.294Z,24.30
2018-09-19T16:05:23.280Z,24.29
2018-09-19T16:07:49.282Z,24.28
2018-09-19T16:10:15.322Z,24.28
2018-09-19T16:12:41.293Z,24.26
2018-09-19T16:15:07.354Z,24.25
2018-09-19T16:17:33.373Z,24.26
2018-09-19T16:19:59.434Z,24.26
2018-09-19T16:22:25.424Z,24.25
2018-09-19T16:24:51.434Z,24.24
2018-09-19T16:27:17.409Z,24.25
2018-09-19T16:29:43.484Z,24.24
2018-09-19T16:32:09.452Z,24.26
2018-09-19T16:34:35.476Z,24.29
2018-09-19T16:37:01.421Z,24.32
2018-09-19T16:39:27.439Z,24.29
2018-09-19T16:41:53.455Z,24.31
2018-09-19T16:44:19.436Z,24.33
2018-09-19T16:46:45.417Z,24.34
2018-09-19T16:49:11.423Z,24.36
2018-09-19T16:51:37.417Z,24.36
2018-09-19T16:54:05.885Z,24.36
2018-09-19T16:56:31.893Z,24.35
2018-09-19T16:58:57.899Z,24.39
2018-09-19T17:01:23.892Z,24.38
2018-09-19T17:03:49.871Z,24.38
2018-09-19T17:06:16.303Z,24.36
2018-09-19T17:08:42.807Z,24.35
2018-09-19T17:11:08.778Z,24.35
2018-09-19T17:13:34.808Z,24.36
2018-09-19T17:16:00.885Z,24.38
2018-09-19T17:18:26.959Z,24.35
2018-09-19T17:20:53.012Z,24.36
2018-09-19T17:23:19.064Z,24.36
2018-09-19T17:25:45.058Z,24.35
2018-09-19T17:28:11.033Z,24.35
2018-09-19T17:30:37.031Z,24.34
2018-09-19T17:33:03.024Z,24.35
2018-09-19T17:35:29.046Z,24.39
2018-09-19T17:37:54.996Z,24.43
2018-09-19T17:40:21.013Z,24.42
2018-09-19T17:42:46.998Z,24.43
2018-09-19T17:45:12.979Z,24.38
2018-09-19T17:47:38.981Z,24.34
2018-09-19T17:50:04.961Z,24.32
2018-09-19T17:52:30.943Z,24.28
2018-09-19T17:54:56.930Z,24.27
2018-09-19T17:57:22.911Z,24.26
2018-09-19T17:59:48.905Z,24.28
2018-09-19T18:02:14.915Z,24.28
2018-09-19T18:04:40.860Z,24.27
2018-09-19T18:07:06.847Z,24.27
2018-09-19T18:09:32.829Z,24.25
2018-09-19T18:11:58.813Z,24.25
2018-09-19T18:14:24.810Z,24.26
2018-09-19T18:16:50.800Z,24.26
2018-09-19T18:19:24.445Z,24.24
2018-09-19T18:21:51.890Z,24.23
2018-09-19T18:24:17.886Z,24.21
2018-09-19T18:26:43.885Z,24.20
2018-09-19T18:29:11.583Z,24.21
2018-09-19T18:31:37.570Z,24.19
2018-09-19T18:34:03.646Z,24.18
2018-09-19T18:36:29.638Z,24.18
2018-09-19T18:38:56.849Z,24.17
2018-09-19T18:41:22.842Z,24.16
2018-09-19T18:43:48.890Z,24.16
2018-09-19T18:46:14.860Z,24.15
2018-09-19T18:48:40.853Z,24.14
2018-09-19T18:51:26.512Z,24.14
2018-09-19T18:53:52.357Z,24.14
2018-09-19T18:56:18.378Z,24.13
2018-09-19T18:58:44.407Z,24.13
2018-09-19T19:01:10.348Z,24.12
2018-09-19T19:03:36.328Z,24.12
2018-09-19T19:06:02.333Z,24.11
2018-09-19T19:08:28.702Z,24.11
2018-09-19T19:10:54.669Z,24.11
2018-09-19T19:13:23.577Z,24.10
2018-09-19T19:15:49.555Z,24.10
2018-09-19T19:18:15.533Z,24.10
2018-09-19T19:20:41.532Z,24.09
2018-09-19T19:23:07.517Z,24.09
2018-09-19T19:25:33.499Z,24.08
2018-09-19T19:27:59.551Z,24.08
2018-09-19T19:30:25.635Z,24.07
2018-09-19T19:32:52.282Z,24.08
2018-09-19T19:35:18.290Z,24.07
2018-09-19T19:37:44.321Z,24.08
2018-09-19T19:40:10.260Z,24.07
2018-09-19T19:42:36.244Z,24.05
2018-09-19T19:45:02.273Z,24.05
2018-09-19T19:47:28.269Z,24.05
2018-09-19T19:49:54.249Z,24.06
2018-09-19T19:52:20.229Z,24.04
2018-09-19T19:54:52.076Z,24.04
2018-09-19T19:57:18.047Z,24.04
2018-09-19T19:59:44.599Z,24.04
2018-09-19T20:02:11.239Z,24.04
2018-09-19T20:04:40.150Z,24.04
2018-09-19T20:07:06.123Z,24.04
2018-09-19T20:09:32.132Z,24.04
2018-09-19T20:11:58.505Z,24.03
2018-09-19T20:14:24.530Z,24.05
2018-09-19T20:16:50.482Z,24.04
2018-09-19T20:19:16.990Z,24.03
2018-09-19T20:21:42.980Z,24.03
2018-09-19T20:24:08.978Z,24.03
2018-09-19T20:26:35.270Z,24.03
2018-09-19T20:29:01.504Z,24.04
2018-09-19T20:31:27.494Z,24.03
2018-09-19T20:33:53.473Z,24.03
2018-09-19T20:36:22.790Z,24.02
2018-09-19T20:38:48.756Z,24.03
2018-09-19T20:41:14.798Z,24.03
2018-09-19T20:43:40.717Z,24.02
2018-09-19T20:46:06.717Z,24.02
2018-09-19T20:48:32.707Z,24.02
2018-09-19T20:50:58.704Z,24.02
2018-09-19T20:53:24.701Z,24.02
2018-09-19T20:55:50.701Z,24.02
2018-09-19T20:58:16.703Z,24.02
2018-09-19T21:00:45.501Z,24.02
2018-09-19T21:03:11.503Z,24.02
2018-09-19T21:05:37.523Z,24.02
2018-09-19T21:08:03.502Z,24.01
2018-09-19T21:10:29.500Z,24.01
2018-09-19T21:12:55.500Z,24.01
2018-09-19T21:15:21.505Z,24.01
2018-09-19T21:17:48.157Z,24.01
2018-09-19T21:20:14.151Z,24.01
2018-09-19T21:22:40.317Z,24.01
2018-09-19T21:25:06.291Z,24.01
2018-09-19T21:27:32.379Z,24.01
2018-09-19T21:29:58.323Z,24.01
2018-09-19T21:32:24.414Z,24.00
2018-09-19T21:34:50.377Z,24.00
2018-09-19T21:37:16.385Z,24.00
2018-09-19T21:39:42.391Z,24.00
2018-09-19T21:42:08.366Z,24.00
2018-09-19T21:44:34.376Z,24.00
2018-09-19T21:47:00.373Z,24.01
2018-09-19T21:49:26.379Z,24.00
2018-09-19T21:51:52.378Z,24.00
2018-09-19T21:54:18.367Z,23.99
2018-09-19T21:56:44.352Z,23.99
2018-09-19T21:59:10.335Z,23.99
2018-09-19T22:01:36.322Z,24.00
2018-09-19T22:04:02.305Z,24.00
2018-09-19T22:06:28.278Z,24.00
2018-09-19T22:08:54.257Z,23.99
2018-09-19T22:11:20.245Z,23.99
2018-09-19T22:13:46.231Z,23.99
2018-09-19T22:16:12.224Z,23.99
2018-09-19T22:18:38.216Z,24.00
2018-09-19T22:21:04.196Z,23.99
2018-09-19T22:23:30.180Z,23.98
2018-09-19T22:25:56.177Z,24.00
2018-09-19T22:28:22.162Z,23.99
2018-09-19T22:30:48.143Z,23.98
2018-09-19T22:33:14.125Z,23.99
2018-09-19T22:35:40.107Z,23.98
2018-09-19T22:38:06.100Z,23.99
2018-09-19T22:40:32.075Z,23.98
2018-09-19T22:42:58.056Z,23.98
2018-09-19T22:45:24.041Z,23.98
2018-09-19T22:47:50.028Z,23.98
2018-09-19T22:50:16.011Z,23.97
2018-09-19T22:52:41.990Z,23.97
2018-09-19T22:55:07.979Z,23.97
2018-09-19T22:57:33.980Z,23.97
2018-09-19T22:59:59.958Z,23.97
2018-09-19T23:02:26.074Z,23.96
2018-09-19T23:04:52.051Z,23.97
2018-09-19T23:07:18.041Z,23.96
2018-09-19T23:09:44.026Z,23.96
2018-09-19T23:12:10.012Z,23.96
2018-09-19T23:14:35.993Z,23.96
2018-09-19T23:17:01.975Z,23.96
2018-09-19T23:19:27.952Z,23.96
2018-09-19T23:21:53.926Z,23.95
2018-09-19T23:24:19.917Z,23.95
2018-09-19T23:26:45.917Z,23.95
2018-09-19T23:29:11.896Z,23.95
2018-09-19T23:31:37.877Z,23.95
2018-09-19T23:34:03.858Z,23.95
2018-09-19T23:36:29.849Z,23.94
2018-09-19T23:38:55.832Z,23.94
2018-09-19T23:41:21.862Z,23.94
2018-09-19T23:43:47.842Z,23.94
2018-09-19T23:46:13.821Z,23.94
2018-09-19T23:48:39.793Z,23.93
2018-09-19T23:51:05.778Z,23.93
2018-09-19T23:53:31.799Z,23.93
2018-09-19T23:55:57.750Z,23.93
2018-09-19T23:58:23.724Z,23.93
